Time;durP1;ratioP1;P1;durP2;ratioP2;P2;SDS_P1;SDS_P2;PMS_P1;PMS_P2;Temp;Humidity;BMP_temperature;BMP_pressure;BME280_temperature;BME280_humidity;BME280_pressure;Samples;Min_cycle;Max_cycle;Signal;HPM_P1;HPM_P2
2022/01/15 00:01:35;;;;;;;14.77;10.13;;;;;;;;;;5056115;28;20020;-76
2022/01/15 00:04:00;;;;;;;13.50;8.52;;;;;;;;;;5055743;28;20020;-77
2022/01/15 00:06:26;;;;;;;15.57;10.38;;;;;;;;;;5055858;28;20029;-77
2022/01/15 00:08:51;;;;;;;18.45;12.60;;;;;;;;;;5057213;28;20052;-77
2022/01/15 00:11:17;;;;;;;20.90;13.55;;;;;;;;;;5057022;28;20384;-78
2022/01/15 00:13:44;;;;;;;16.80;10.32;;;;;;;;;;5057134;28;20092;-78
2022/01/15 00:16:13;;;;;;;14.55;9.57;;;;;;;;;;5055489;28;20074;-77
2022/01/15 00:18:44;;;;;;;18.40;10.00;;;;;;;;;;5055377;28;20516;-80
2022/01/15 00:21:10;;;;;;;19.95;12.20;;;;;;;;;;5062590;28;20013;-77
2022/01/15 00:23:36;;;;;;;21.73;13.05;;;;;;;;;;5077270;28;20066;-78
2022/01/15 00:26:02;;;;;;;21.63;13.80;;;;;;;;;;5077267;28;20080;-78
2022/01/15 00:28:27;;;;;;;21.92;12.75;;;;;;;;;;5075964;28;20028;-78
2022/01/15 00:30:53;;;;;;;30.25;17.17;;;;;;;;;;5077726;28;20027;-80
2022/01/15 00:33:18;;;;;;;22.38;14.00;;;;;;;;;;5075542;28;20161;-79
2022/01/15 00:35:43;;;;;;;21.50;13.98;;;;;;;;;;5075480;28;20024;-77
2022/01/15 00:38:09;;;;;;;27.45;15.70;;;;;;;;;;5077735;28;20601;-78
2022/01/15 00:40:34;;;;;;;26.10;16.55;;;;;;;;;;5074107;28;20145;-77
2022/01/15 00:42:59;;;;;;;20.38;13.73;;;;;;;;;;5075849;28;20024;-77
2022/01/15 00:48:28;;;;;;;19.95;11.93;;;;;;;;;;5076433;28;20538;-78
2022/01/15 00:50:53;;;;;;;23.05;12.38;;;;;;;;;;5074856;28;20126;-79
2022/01/15 00:53:19;;;;;;;21.65;13.65;;;;;;;;;;5076062;28;20030;-78
2022/01/15 00:55:45;;;;;;;22.75;12.85;;;;;;;;;;5075651;28;20670;-78
2022/01/15 00:58:11;;;;;;;17.58;10.60;;;;;;;;;;5075478;28;20020;-77
2022/01/15 01:00:36;;;;;;;27.55;17.10;;;;;;;;;;5079862;28;20015;-78
2022/01/15 01:03:02;;;;;;;26.88;16.55;;;;;;;;;;5074948;28;20020;-77
2022/01/15 01:05:27;;;;;;;31.65;17.13;;;;;;;;;;5076868;28;20016;-78
2022/01/15 01:07:52;;;;;;;28.45;17.10;;;;;;;;;;5074424;28;20606;-78
2022/01/15 01:23:43;;;;;;;13.30;9.23;;;;;;;;;;5076094;28;20139;-79
2022/01/15 01:26:23;;;;;;;24.75;14.98;;;;;;;;;;5075755;28;20119;-77
2022/01/15 01:28:58;;;;;;;19.50;11.50;;;;;;;;;;5074566;28;20065;-78
2022/01/15 01:31:32;;;;;;;19.20;11.73;;;;;;;;;;5074921;28;20089;-77
2022/01/15 01:34:06;;;;;;;21.35;13.10;;;;;;;;;;5075438;28;20027;-78
2022/01/15 01:39:12;;;;;;;20.85;13.75;;;;;;;;;;5076116;28;20423;-78
2022/01/15 01:41:41;;;;;;;17.90;11.70;;;;;;;;;;5074306;28;21141;-79
2022/01/15 01:44:09;;;;;;;20.58;12.73;;;;;;;;;;5074522;28;20023;-77
2022/01/15 01:46:44;;;;;;;21.27;13.82;;;;;;;;;;5074574;28;20038;-78
2022/01/15 01:49:10;;;;;;;19.00;11.73;;;;;;;;;;5073956;28;20020;-78
2022/01/15 01:51:39;;;;;;;16.65;11.10;;;;;;;;;;5075663;28;20023;-78
2022/01/15 01:54:06;;;;;;;16.17;10.32;;;;;;;;;;5075709;28;21118;-79
2022/01/15 01:56:32;;;;;;;18.02;10.57;;;;;;;;;;5074866;28;20024;-79
2022/01/15 01:58:58;;;;;;;16.65;10.95;;;;;;;;;;5074236;28;20061;-77
2022/01/15 02:01:23;;;;;;;17.98;11.25;;;;;;;;;;5073830;28;20012;-77
2022/01/15 02:03:49;;;;;;;17.67;12.07;;;;;;;;;;5074001;28;20027;-79
2022/01/15 02:06:15;;;;;;;20.17;13.13;;;;;;;;;;5073714;28;20438;-77
2022/01/15 02:08:41;;;;;;;21.85;12.23;;;;;;;;;;5074412;28;20028;-77
2022/01/15 02:11:07;;;;;;;20.45;11.35;;;;;;;;;;5074008;28;20130;-77
2022/01/15 02:13:33;;;;;;;18.75;11.80;;;;;;;;;;5073616;28;20057;-79
2022/01/15 02:15:59;;;;;;;16.25;10.18;;;;;;;;;;5073534;28;20016;-78
2022/01/15 02:18:25;;;;;;;18.05;10.82;;;;;;;;;;5073174;28;20012;-79
2022/01/15 02:23:43;;;;;;;21.50;12.13;;;;;;;;;;5074653;28;20103;-77
2022/01/15 02:26:10;;;;;;;19.38;11.23;;;;;;;;;;5075311;28;20048;-77
2022/01/15 02:28:37;;;;;;;23.98;13.27;;;;;;;;;;5074893;28;20038;-77
2022/01/15 02:31:04;;;;;;;21.25;13.77;;;;;;;;;;5073088;28;20024;-80
2022/01/15 02:33:29;;;;;;;18.48;12.18;;;;;;;;;;5074959;28;20065;-77
2022/01/15 02:35:55;;;;;;;18.30;11.23;;;;;;;;;;5073552;28;20401;-77
2022/01/15 02:38:20;;;;;;;19.45;12.63;;;;;;;;;;5073151;28;20032;-77
2022/01/15 02:40:46;;;;;;;21.45;12.38;;;;;;;;;;5073737;28;20301;-76
2022/01/15 02:43:14;;;;;;;21.42;12.80;;;;;;;;;;5073626;28;20024;-78
2022/01/15 02:45:43;;;;;;;19.70;12.43;;;;;;;;;;5074772;28;20020;-78
2022/01/15 02:48:16;;;;;;;24.00;13.65;;;;;;;;;;5074737;28;20370;-78
2022/01/15 02:50:42;;;;;;;20.38;11.85;;;;;;;;;;5073516;28;20034;-77
2022/01/15 02:53:08;;;;;;;19.92;12.98;;;;;;;;;;5073059;28;20028;-76
2022/01/15 02:55:34;;;;;;;20.60;10.95;;;;;;;;;;5073538;28;20347;-77
2022/01/15 02:57:59;;;;;;;20.23;12.55;;;;;;;;;;5074965;28;20099;-77
2022/01/15 03:00:25;;;;;;;26.58;16.20;;;;;;;;;;5074544;28;20053;-77
2022/01/15 03:02:51;;;;;;;21.15;11.77;;;;;;;;;;5073173;28;20027;-78
2022/01/15 03:05:16;;;;;;;21.10;12.68;;;;;;;;;;5074795;28;20020;-79
2022/01/15 03:07:42;;;;;;;19.15;11.23;;;;;;;;;;5075286;28;20541;-78
2022/01/15 03:10:10;;;;;;;27.30;14.45;;;;;;;;;;5074511;28;20016;-77
2022/01/15 03:12:36;;;;;;;29.40;14.93;;;;;;;;;;5074774;28;20016;-77
2022/01/15 03:15:04;;;;;;;21.90;12.65;;;;;;;;;;5073309;28;20016;-78
2022/01/15 03:17:30;;;;;;;22.20;13.05;;;;;;;;;;5075071;28;20094;-78
2022/01/15 03:19:55;;;;;;;20.30;11.95;;;;;;;;;;5073234;28;20530;-79
2022/01/15 03:22:21;;;;;;;20.90;11.63;;;;;;;;;;5073062;28;20497;-78
2022/01/15 03:24:46;;;;;;;23.13;12.95;;;;;;;;;;5073151;28;20016;-79
2022/01/15 03:27:11;;;;;;;22.35;13.30;;;;;;;;;;5072637;28;20071;-77
2022/01/15 03:29:37;;;;;;;24.25;14.50;;;;;;;;;;5074930;28;20039;-79
2022/01/15 03:32:02;;;;;;;24.05;14.25;;;;;;;;;;5073049;28;20016;-79
2022/01/15 03:34:28;;;;;;;20.95;12.98;;;;;;;;;;5074441;28;20019;-79
2022/01/15 03:36:53;;;;;;;19.52;11.63;;;;;;;;;;5078031;28;20031;-78
2022/01/15 03:39:19;;;;;;;27.50;13.10;;;;;;;;;;5078189;28;20048;-79
2022/01/15 03:41:45;;;;;;;24.10;12.20;;;;;;;;;;5077558;28;20020;-78
2022/01/15 03:44:10;;;;;;;19.65;11.05;;;;;;;;;;5078341;28;20126;-78
2022/01/15 03:48:16;;;;;;;22.45;12.65;;;;;;;;;;5134520;27;20435;-79
2022/01/15 03:50:42;;;;;;;20.65;12.75;;;;;;;;;;5134346;27;20031;-77
2022/01/15 03:53:07;;;;;;;19.83;11.27;;;;;;;;;;5132482;27;20338;-79
2022/01/15 03:55:33;;;;;;;21.02;12.68;;;;;;;;;;5132205;27;20019;-78
2022/01/15 03:58:00;;;;;;;21.27;13.20;;;;;;;;;;5133638;27;20361;-78
2022/01/15 04:00:25;;;;;;;26.60;14.80;;;;;;;;;;5133882;27;20038;-79
2022/01/15 04:02:52;;;;;;;27.98;14.55;;;;;;;;;;5131712;27;20453;-78
2022/01/15 04:05:17;;;;;;;26.90;15.38;;;;;;;;;;5134209;27;20022;-78
2022/01/15 04:07:43;;;;;;;26.35;15.32;;;;;;;;;;5132019;27;20023;-79
2022/01/15 04:10:09;;;;;;;22.52;12.45;;;;;;;;;;5133243;27;20465;-78
2022/01/15 04:12:35;;;;;;;23.35;12.50;;;;;;;;;;5133248;27;20042;-80
2022/01/15 04:15:00;;;;;;;23.80;13.13;;;;;;;;;;5134198;27;20047;-78
2022/01/15 04:17:26;;;;;;;22.23;12.90;;;;;;;;;;5133042;27;20435;-80
2022/01/15 04:19:52;;;;;;;22.33;13.30;;;;;;;;;;5133369;27;20019;-77
2022/01/15 04:22:17;;;;;;;25.67;14.82;;;;;;;;;;5131526;27;20019;-78
2022/01/15 04:24:43;;;;;;;32.08;17.77;;;;;;;;;;5133434;27;20469;-77
2022/01/15 04:27:09;;;;;;;33.60;16.13;;;;;;;;;;5132918;27;20105;-78
2022/01/15 04:29:35;;;;;;;40.95;20.27;;;;;;;;;;5131683;27;20019;-78
2022/01/15 04:32:02;;;;;;;37.22;19.85;;;;;;;;;;5133241;27;20022;-77
2022/01/15 04:34:27;;;;;;;28.63;16.02;;;;;;;;;;5133186;27;20461;-78
2022/01/15 04:36:59;;;;;;;31.20;17.70;;;;;;;;;;5132670;27;20018;-78
2022/01/15 04:39:24;;;;;;;29.92;17.38;;;;;;;;;;5133009;27;20450;-78
2022/01/15 04:41:50;;;;;;;37.42;20.95;;;;;;;;;;5133842;27;20071;-78
2022/01/15 04:44:15;;;;;;;35.20;21.45;;;;;;;;;;5130737;27;20105;-78
2022/01/15 04:46:40;;;;;;;31.75;20.60;;;;;;;;;;5132491;27;20071;-77
2022/01/15 04:49:06;;;;;;;28.42;16.35;;;;;;;;;;5131295;27;20444;-77
2022/01/15 04:51:32;;;;;;;29.27;18.13;;;;;;;;;;5130850;27;20464;-78
2022/01/15 04:53:57;;;;;;;29.55;18.23;;;;;;;;;;5133715;27;20007;-77
2022/01/15 04:56:23;;;;;;;33.08;20.55;;;;;;;;;;5132656;27;20054;-78
2022/01/15 04:58:48;;;;;;;39.47;26.55;;;;;;;;;;5121349;27;20019;-77
2022/01/15 05:01:13;;;;;;;44.03;25.67;;;;;;;;;;5117230;27;20035;-77
2022/01/15 05:03:39;;;;;;;39.58;22.05;;;;;;;;;;5117281;27;20019;-78
2022/01/15 05:06:05;;;;;;;37.65;21.63;;;;;;;;;;5117178;27;20019;-78
2022/01/15 05:08:31;;;;;;;29.55;18.13;;;;;;;;;;5116923;27;20473;-78
2022/01/15 05:10:59;;;;;;;30.30;18.67;;;;;;;;;;5119365;27;20018;-77
2022/01/15 05:13:28;;;;;;;35.92;18.83;;;;;;;;;;5116579;27;20015;-77
2022/01/15 05:15:54;;;;;;;33.40;20.95;;;;;;;;;;5118572;27;20025;-77
2022/01/15 05:18:19;;;;;;;30.33;18.45;;;;;;;;;;5118389;27;20020;-77
2022/01/15 05:20:45;;;;;;;65.13;36.20;;;;;;;;;;5117214;27;20030;-77
2022/01/15 05:23:11;;;;;;;56.45;34.42;;;;;;;;;;5118162;27;20095;-76
2022/01/15 05:25:36;;;;;;;77.68;42.63;;;;;;;;;;5117961;27;20015;-78
2022/01/15 05:28:02;;;;;;;54.90;31.23;;;;;;;;;;5116676;27;20056;-77
2022/01/15 05:30:30;;;;;;;37.70;21.25;;;;;;;;;;5118114;27;20027;-78
2022/01/15 05:32:56;;;;;;;35.65;21.88;;;;;;;;;;5118368;27;20015;-77
2022/01/15 05:35:26;;;;;;;33.95;20.92;;;;;;;;;;5118174;27;20027;-77
2022/01/15 05:37:51;;;;;;;30.42;16.95;;;;;;;;;;5119219;27;20019;-76
2022/01/15 05:40:16;;;;;;;32.47;17.95;;;;;;;;;;5116597;27;20115;-75
2022/01/15 05:42:42;;;;;;;29.63;18.75;;;;;;;;;;5119081;27;20090;-77
2022/01/15 05:45:07;;;;;;;31.67;16.65;;;;;;;;;;5119519;27;20437;-77
2022/01/15 05:47:33;;;;;;;36.58;22.17;;;;;;;;;;5117565;27;20378;-77
2022/01/15 05:49:58;;;;;;;56.28;28.90;;;;;;;;;;5116609;27;20037;-77
2022/01/15 05:52:23;;;;;;;42.50;23.55;;;;;;;;;;5117889;27;20115;-77
2022/01/15 05:54:49;;;;;;;62.17;31.42;;;;;;;;;;5117323;27;20048;-77
2022/01/15 05:57:14;;;;;;;82.72;43.22;;;;;;;;;;5117855;27;20030;-77
2022/01/15 05:59:40;;;;;;;68.28;36.67;;;;;;;;;;5117511;27;20082;-76
2022/01/15 06:02:05;;;;;;;47.92;27.70;;;;;;;;;;5115794;27;20026;-76
2022/01/15 06:04:30;;;;;;;90.88;41.70;;;;;;;;;;5117699;27;20445;-76
2022/01/15 06:06:56;;;;;;;64.40;32.95;;;;;;;;;;5117667;27;20026;-78
2022/01/15 06:09:21;;;;;;;68.53;33.20;;;;;;;;;;5115418;27;20034;-77
2022/01/15 06:11:46;;;;;;;57.03;31.02;;;;;;;;;;5117135;27;20007;-77
2022/01/15 06:14:12;;;;;;;62.47;32.47;;;;;;;;;;5115560;27;20018;-77
2022/01/15 06:16:37;;;;;;;63.67;33.00;;;;;;;;;;5116965;27;20027;-77
2022/01/15 06:19:03;;;;;;;61.83;33.35;;;;;;;;;;5114672;27;20399;-78
2022/01/15 06:21:28;;;;;;;45.95;26.20;;;;;;;;;;5116554;27;20502;-78
2022/01/15 06:23:53;;;;;;;39.47;25.17;;;;;;;;;;5114694;27;20361;-77
2022/01/15 06:26:19;;;;;;;44.30;24.85;;;;;;;;;;5114284;27;20035;-78
2022/01/15 06:28:44;;;;;;;48.20;26.67;;;;;;;;;;5116840;27;20064;-76
2022/01/15 06:31:09;;;;;;;43.83;25.08;;;;;;;;;;5118588;27;20023;-78
2022/01/15 06:33:35;;;;;;;40.40;21.50;;;;;;;;;;5115454;27;20637;-77
2022/01/15 06:36:00;;;;;;;39.28;23.48;;;;;;;;;;5115413;27;20039;-77
2022/01/15 06:38:25;;;;;;;42.38;23.50;;;;;;;;;;5115288;27;20076;-78
2022/01/15 06:40:51;;;;;;;34.85;21.48;;;;;;;;;;5115750;27;20033;-77
2022/01/15 06:43:16;;;;;;;36.17;20.73;;;;;;;;;;5113914;27;20445;-77
2022/01/15 06:45:41;;;;;;;34.55;19.25;;;;;;;;;;5116811;27;20021;-77
2022/01/15 06:48:07;;;;;;;32.28;19.08;;;;;;;;;;5114603;27;20051;-76
2022/01/15 06:50:33;;;;;;;29.85;17.25;;;;;;;;;;5116667;27;20053;-76
2022/01/15 06:52:58;;;;;;;30.73;18.30;;;;;;;;;;5117055;27;20019;-77
2022/01/15 06:55:23;;;;;;;33.05;18.70;;;;;;;;;;5115247;27;20111;-77
2022/01/15 06:57:48;;;;;;;31.65;17.45;;;;;;;;;;5115028;27;20019;-77
2022/01/15 07:00:14;;;;;;;37.25;21.75;;;;;;;;;;5114571;27;20415;-75
2022/01/15 07:02:40;;;;;;;34.88;18.95;;;;;;;;;;5116645;27;20015;-76
2022/01/15 07:05:06;;;;;;;31.92;19.90;;;;;;;;;;5116191;27;20023;-77
2022/01/15 07:07:31;;;;;;;36.50;20.70;;;;;;;;;;5114889;27;20031;-75
2022/01/15 07:09:57;;;;;;;52.80;28.38;;;;;;;;;;5115276;27;20025;-76
2022/01/15 07:12:22;;;;;;;44.72;23.98;;;;;;;;;;5116015;27;20007;-76
2022/01/15 07:14:47;;;;;;;35.78;19.40;;;;;;;;;;5116426;27;20026;-77
2022/01/15 07:17:13;;;;;;;31.92;19.58;;;;;;;;;;5116095;27;20015;-78
2022/01/15 07:19:38;;;;;;;35.30;20.63;;;;;;;;;;5116248;27;20134;-80
2022/01/15 07:22:04;;;;;;;36.20;21.48;;;;;;;;;;5114470;27;20015;-78
2022/01/15 07:24:30;;;;;;;55.92;29.63;;;;;;;;;;5115570;27;20015;-77
2022/01/15 07:26:55;;;;;;;74.43;36.53;;;;;;;;;;5114699;27;20042;-77
2022/01/15 07:29:23;;;;;;;47.55;22.73;;;;;;;;;;5115940;27;20107;-80
2022/01/15 07:31:49;;;;;;;28.55;17.98;;;;;;;;;;5115790;27;20015;-78
2022/01/15 07:34:14;;;;;;;43.22;23.60;;;;;;;;;;5114645;27;20057;-79
2022/01/15 07:36:40;;;;;;;41.95;22.05;;;;;;;;;;5114421;27;20038;-78
2022/01/15 07:39:07;;;;;;;32.35;20.85;;;;;;;;;;5114398;27;20065;-78
2022/01/15 07:41:33;;;;;;;30.10;18.02;;;;;;;;;;5114252;27;20105;-78
2022/01/15 07:43:58;;;;;;;39.03;21.17;;;;;;;;;;5115448;27;20102;-76
2022/01/15 07:46:23;;;;;;;45.13;24.98;;;;;;;;;;5115198;27;20062;-78
2022/01/15 07:48:49;;;;;;;52.60;28.50;;;;;;;;;;5114524;28;20019;-79
2022/01/15 07:51:14;;;;;;;53.53;29.90;;;;;;;;;;5107695;28;20020;-78
2022/01/15 07:53:40;;;;;;;54.97;31.75;;;;;;;;;;5099316;28;20019;-79
2022/01/15 07:56:05;;;;;;;55.72;31.73;;;;;;;;;;5097275;28;20388;-78
2022/01/15 07:58:30;;;;;;;40.08;25.50;;;;;;;;;;5097927;28;20016;-78
2022/01/15 08:00:56;;;;;;;35.13;19.88;;;;;;;;;;5107692;28;20569;-77
2022/01/15 08:03:21;;;;;;;42.83;27.10;;;;;;;;;;5093896;28;20473;-76
2022/01/15 08:05:46;;;;;;;46.83;25.15;;;;;;;;;;5095335;28;20738;-76
2022/01/15 08:08:12;;;;;;;32.80;20.10;;;;;;;;;;5093199;28;20131;-76
2022/01/15 08:10:37;;;;;;;39.40;22.42;;;;;;;;;;5110300;28;20023;-77
2022/01/15 08:13:03;;;;;;;47.97;25.00;;;;;;;;;;5114120;28;20419;-78
2022/01/15 08:15:28;;;;;;;33.28;18.17;;;;;;;;;;5114066;28;20075;-78
2022/01/15 08:17:53;;;;;;;30.27;18.02;;;;;;;;;;5114328;28;20033;-79
2022/01/15 08:20:19;;;;;;;33.80;20.52;;;;;;;;;;5114015;28;20019;-78
2022/01/15 08:24:59;;;;;;;51.95;27.67;;;;;;;;;;5134198;27;20418;-77
2022/01/15 08:27:25;;;;;;;44.65;25.48;;;;;;;;;;5131739;27;20023;-77
2022/01/15 08:29:50;;;;;;;46.58;25.75;;;;;;;;;;5133597;27;20102;-78
2022/01/15 08:32:15;;;;;;;44.10;23.88;;;;;;;;;;5132439;27;20018;-77
2022/01/15 08:34:43;;;;;;;58.97;32.80;;;;;;;;;;5133752;27;20449;-78
2022/01/15 08:37:08;;;;;;;46.53;27.15;;;;;;;;;;5134003;27;20403;-78
2022/01/15 08:39:35;;;;;;;68.55;40.40;;;;;;;;;;5132146;27;20019;-77
2022/01/15 08:42:01;;;;;;;31.65;19.52;;;;;;;;;;5132156;27;20019;-77
2022/01/15 08:44:26;;;;;;;34.45;22.05;;;;;;;;;;5126967;27;20353;-77
2022/01/15 08:46:52;;;;;;;47.33;25.58;;;;;;;;;;5116595;27;20450;-79
2022/01/15 08:49:18;;;;;;;49.70;27.77;;;;;;;;;;5113162;27;20080;-78
2022/01/15 08:51:43;;;;;;;46.53;25.20;;;;;;;;;;5114050;27;20011;-78
2022/01/15 08:54:09;;;;;;;53.30;27.52;;;;;;;;;;5110705;28;20026;-79
2022/01/15 08:56:34;;;;;;;55.58;31.02;;;;;;;;;;5110963;28;20047;-77
2022/01/15 08:58:59;;;;;;;62.63;34.30;;;;;;;;;;5113283;27;20692;-77
2022/01/15 09:01:25;;;;;;;53.20;30.58;;;;;;;;;;5113440;27;20023;-78
2022/01/15 09:03:50;;;;;;;49.78;25.98;;;;;;;;;;5113479;27;20038;-79
2022/01/15 09:06:15;;;;;;;49.78;28.33;;;;;;;;;;5113462;27;20023;-79
2022/01/15 09:08:42;;;;;;;43.17;22.63;;;;;;;;;;5110979;27;20016;-77
2022/01/15 09:11:08;;;;;;;50.47;27.10;;;;;;;;;;5110702;27;20024;-78
2022/01/15 09:13:33;;;;;;;42.90;24.95;;;;;;;;;;5113689;27;20023;-78
2022/01/15 09:15:58;;;;;;;35.63;20.38;;;;;;;;;;5110750;27;20182;-76
2022/01/15 09:18:24;;;;;;;35.63;21.63;;;;;;;;;;5112679;27;20012;-75
2022/01/15 09:20:49;;;;;;;37.08;25.38;;;;;;;;;;5111888;27;20023;-78
2022/01/15 09:23:15;;;;;;;31.38;19.15;;;;;;;;;;5108871;27;20130;-77
2022/01/15 09:25:40;;;;;;;30.40;17.92;;;;;;;;;;5112015;27;20096;-78
2022/01/15 09:30:50;;;;;;;43.03;27.83;;;;;;;;;;5109747;28;20076;-76
2022/01/15 09:33:15;;;;;;;38.83;23.02;;;;;;;;;;5111350;27;20028;-76
2022/01/15 09:35:42;;;;;;;37.95;22.50;;;;;;;;;;5102287;27;20019;-77
2022/01/15 09:38:08;;;;;;;44.20;26.38;;;;;;;;;;5099350;27;20390;-76
2022/01/15 09:40:34;;;;;;;29.60;18.13;;;;;;;;;;5107533;27;20046;-76
2022/01/15 09:43:00;;;;;;;33.00;21.38;;;;;;;;;;5099138;28;20442;-79
2022/01/15 09:45:25;;;;;;;33.78;20.25;;;;;;;;;;5096400;28;20030;-77
2022/01/15 09:48:01;;;;;;;52.10;29.15;;;;;;;;;;5096900;28;20047;-78
2022/01/15 09:50:28;;;;;;;50.25;26.40;;;;;;;;;;5096834;28;20430;-77
2022/01/15 09:52:54;;;;;;;32.88;19.23;;;;;;;;;;5096300;28;20362;-77
2022/01/15 09:55:21;;;;;;;51.10;26.98;;;;;;;;;;5098559;28;20020;-78
2022/01/15 09:57:47;;;;;;;55.50;28.45;;;;;;;;;;5097960;28;20361;-75
2022/01/15 10:00:14;;;;;;;57.38;28.95;;;;;;;;;;5096420;28;20046;-76
2022/01/15 10:02:41;;;;;;;45.53;24.25;;;;;;;;;;5098641;28;20019;-77
2022/01/15 10:05:06;;;;;;;38.20;21.25;;;;;;;;;;5098041;28;20027;-76
2022/01/15 10:07:32;;;;;;;36.05;22.73;;;;;;;;;;5098159;28;20947;-77
2022/01/15 10:10:10;;;;;;;22.45;14.65;;;;;;;;;;5095878;28;20038;-76
2022/01/15 10:12:36;;;;;;;34.83;21.33;;;;;;;;;;5097730;27;20057;-74
2022/01/15 10:15:04;;;;;;;31.10;18.88;;;;;;;;;;5105824;27;20070;-78
2022/01/15 10:17:32;;;;;;;33.67;21.08;;;;;;;;;;5097333;28;20015;-76
2022/01/15 10:19:58;;;;;;;44.13;23.15;;;;;;;;;;5097789;28;20016;-76
2022/01/15 10:22:24;;;;;;;21.10;13.10;;;;;;;;;;5096922;28;20362;-76
2022/01/15 10:25:00;;;;;;;23.25;15.02;;;;;;;;;;5097527;28;20077;-76
2022/01/15 10:27:32;;;;;;;31.83;21.77;;;;;;;;;;5097048;27;20019;-76
2022/01/15 10:30:10;;;;;;;28.33;19.10;;;;;;;;;;5108638;27;20016;-76
2022/01/15 10:32:36;;;;;;;23.55;15.60;;;;;;;;;;5116067;27;20015;-77
2022/01/15 10:35:13;;;;;;;23.23;15.90;;;;;;;;;;5117881;27;20551;-77
2022/01/15 10:37:55;;;;;;;29.65;18.10;;;;;;;;;;5117644;27;20019;-77
2022/01/15 10:40:27;;;;;;;23.17;14.95;;;;;;;;;;5118137;27;20508;-77
2022/01/15 10:42:55;;;;;;;34.22;20.40;;;;;;;;;;5117788;27;20520;-79
2022/01/15 10:45:21;;;;;;;38.85;23.02;;;;;;;;;;5117313;27;20506;-78
2022/01/15 10:47:48;;;;;;;24.38;15.07;;;;;;;;;;5116361;27;20398;-77
2022/01/15 10:50:33;;;;;;;27.10;15.30;;;;;;;;;;5111273;27;20022;-78
2022/01/15 10:53:04;;;;;;;38.90;22.52;;;;;;;;;;5113006;27;20023;-78
2022/01/15 10:55:30;;;;;;;18.60;11.35;;;;;;;;;;5116036;27;20015;-77
2022/01/15 10:57:56;;;;;;;25.15;16.70;;;;;;;;;;5115616;27;20011;-78
2022/01/15 11:00:27;;;;;;;27.60;16.90;;;;;;;;;;5117270;27;20069;-77
2022/01/15 11:03:00;;;;;;;18.77;12.35;;;;;;;;;;5114117;27;20019;-77
2022/01/15 11:05:28;;;;;;;22.85;14.55;;;;;;;;;;5117243;27;20411;-76
2022/01/15 11:08:02;;;;;;;30.77;19.67;;;;;;;;;;5115624;27;20019;-78
2022/01/15 11:10:28;;;;;;;28.05;17.17;;;;;;;;;;5115749;27;20015;-76
2022/01/15 11:12:54;;;;;;;28.90;17.40;;;;;;;;;;5116612;27;20019;-77
2022/01/15 11:15:19;;;;;;;28.52;17.90;;;;;;;;;;5116514;27;20026;-77
2022/01/15 11:17:46;;;;;;;34.85;20.83;;;;;;;;;;5115019;27;20015;-77
2022/01/15 11:20:15;;;;;;;40.90;23.10;;;;;;;;;;5115447;27;20059;-77
2022/01/15 11:22:41;;;;;;;39.90;22.48;;;;;;;;;;5114415;27;20027;-77
2022/01/15 11:25:07;;;;;;;27.63;16.90;;;;;;;;;;5115251;27;20929;-77
2022/01/15 11:27:34;;;;;;;34.50;18.67;;;;;;;;;;5116423;27;20063;-78
2022/01/15 11:29:59;;;;;;;21.52;14.35;;;;;;;;;;5114514;27;20019;-77
2022/01/15 11:32:26;;;;;;;26.65;15.68;;;;;;;;;;5115174;27;20021;-76
2022/01/15 11:34:58;;;;;;;29.20;16.75;;;;;;;;;;5115050;27;20024;-76
2022/01/15 11:37:24;;;;;;;30.38;18.05;;;;;;;;;;5114563;27;20802;-78
2022/01/15 11:39:52;;;;;;;29.63;17.42;;;;;;;;;;5114736;27;20446;-77
2022/01/15 11:42:27;;;;;;;22.67;15.43;;;;;;;;;;5116218;27;20053;-76
2022/01/15 11:44:53;;;;;;;28.42;18.55;;;;;;;;;;5114547;27;20338;-77
2022/01/15 11:47:23;;;;;;;22.95;13.88;;;;;;;;;;5116550;27;20075;-80
2022/01/15 11:49:50;;;;;;;26.30;15.25;;;;;;;;;;5116206;27;20072;-76
2022/01/15 11:52:18;;;;;;;22.25;13.48;;;;;;;;;;5117151;27;20023;-77
2022/01/15 11:54:49;;;;;;;27.95;18.27;;;;;;;;;;5116238;27;20106;-78
2022/01/15 11:57:27;;;;;;;31.67;18.58;;;;;;;;;;5114319;27;20019;-77
2022/01/15 11:59:57;;;;;;;17.65;9.68;;;;;;;;;;5114508;27;20060;-78
2022/01/15 12:02:41;;;;;;;15.15;10.35;;;;;;;;;;5116487;27;20022;-79
2022/01/15 12:05:15;;;;;;;26.27;14.02;;;;;;;;;;5114468;27;20027;-74
2022/01/15 12:07:45;;;;;;;23.83;14.77;;;;;;;;;;5116112;27;20613;-77
2022/01/15 12:10:13;;;;;;;34.88;22.10;;;;;;;;;;5116113;27;20509;-77
2022/01/15 12:12:48;;;;;;;34.78;19.77;;;;;;;;;;5116132;27;20022;-77
2022/01/15 12:15:19;;;;;;;21.15;12.68;;;;;;;;;;5115745;27;20365;-78
2022/01/15 12:17:50;;;;;;;28.75;18.33;;;;;;;;;;5114809;27;20046;-77
2022/01/15 12:20:20;;;;;;;19.40;12.80;;;;;;;;;;5115215;27;20441;-78
2022/01/15 12:22:47;;;;;;;28.52;16.70;;;;;;;;;;5093337;28;20027;-78
2022/01/15 12:25:12;;;;;;;26.42;16.20;;;;;;;;;;5093873;28;20023;-77
2022/01/15 12:27:38;;;;;;;16.73;11.18;;;;;;;;;;5093876;28;20020;-77
2022/01/15 12:30:11;;;;;;;23.13;15.65;;;;;;;;;;5095098;28;20023;-75
2022/01/15 12:32:39;;;;;;;22.85;14.60;;;;;;;;;;5093907;28;20052;-76
2022/01/15 12:35:05;;;;;;;21.08;12.90;;;;;;;;;;5095598;28;20430;-76
2022/01/15 12:37:31;;;;;;;18.98;12.27;;;;;;;;;;5095073;28;20030;-77
2022/01/15 12:39:56;;;;;;;22.98;14.75;;;;;;;;;;5093299;28;20024;-76
2022/01/15 12:42:28;;;;;;;19.60;13.23;;;;;;;;;;5093696;28;20011;-76
2022/01/15 12:44:53;;;;;;;22.73;14.52;;;;;;;;;;5096230;28;20062;-78
2022/01/15 12:47:20;;;;;;;17.08;11.88;;;;;;;;;;5095001;28;20051;-75
2022/01/15 12:49:47;;;;;;;17.08;11.10;;;;;;;;;;5093540;28;20019;-76
2022/01/15 12:52:21;;;;;;;21.00;13.43;;;;;;;;;;5095053;28;20042;-78
2022/01/15 12:54:48;;;;;;;15.80;9.52;;;;;;;;;;5093274;28;20081;-78
2022/01/15 12:57:13;;;;;;;40.90;21.10;;;;;;;;;;5093748;28;20059;-77
2022/01/15 12:59:39;;;;;;;45.67;22.33;;;;;;;;;;5095776;28;20299;-77
2022/01/15 13:02:06;;;;;;;49.45;23.17;;;;;;;;;;5093705;28;20428;-76
2022/01/15 13:04:31;;;;;;;27.23;14.88;;;;;;;;;;5095128;28;20057;-79
2022/01/15 13:06:57;;;;;;;24.35;13.90;;;;;;;;;;5093444;28;20023;-76
2022/01/15 13:09:23;;;;;;;18.08;10.70;;;;;;;;;;5094401;28;20381;-77
2022/01/15 13:11:57;;;;;;;39.80;27.67;;;;;;;;;;5097516;28;20045;-79
2022/01/15 13:14:23;;;;;;;19.85;14.10;;;;;;;;;;5098798;28;20030;-78
2022/01/15 13:16:48;;;;;;;37.08;20.75;;;;;;;;;;5097067;28;20023;-76
2022/01/15 13:19:14;;;;;;;19.33;11.90;;;;;;;;;;5098421;28;20031;-76
2022/01/15 13:21:40;;;;;;;46.22;28.38;;;;;;;;;;5098980;28;20019;-78
2022/01/15 13:24:12;;;;;;;20.90;13.20;;;;;;;;;;5098803;28;20093;-78
2022/01/15 13:26:46;;;;;;;22.40;14.52;;;;;;;;;;5097020;28;20020;-77
2022/01/15 13:29:14;;;;;;;18.00;11.73;;;;;;;;;;5096763;28;20049;-77
2022/01/15 13:31:40;;;;;;;24.52;14.35;;;;;;;;;;5099247;28;20077;-76
2022/01/15 13:34:09;;;;;;;27.65;15.50;;;;;;;;;;5098594;28;20024;-77
2022/01/15 13:36:35;;;;;;;24.10;12.27;;;;;;;;;;5096669;28;20362;-77
2022/01/15 13:39:00;;;;;;;27.98;16.10;;;;;;;;;;5097300;28;20020;-79
2022/01/15 13:41:30;;;;;;;29.15;16.80;;;;;;;;;;5098406;28;20453;-76
2022/01/15 13:43:56;;;;;;;122.13;72.97;;;;;;;;;;5096378;28;20489;-77
2022/01/15 13:46:32;;;;;;;89.22;49.17;;;;;;;;;;5098121;28;20022;-77
2022/01/15 13:48:58;;;;;;;68.25;35.92;;;;;;;;;;5098145;28;20012;-77
2022/01/15 13:54:09;;;;;;;46.33;26.35;;;;;;;;;;5098248;28;20111;-77
2022/01/15 13:56:36;;;;;;;29.65;19.88;;;;;;;;;;5097874;28;20493;-76
2022/01/15 13:59:03;;;;;;;29.73;20.15;;;;;;;;;;5098526;28;20011;-78
2022/01/15 14:01:39;;;;;;;23.92;17.33;;;;;;;;;;5096385;28;20019;-76
2022/01/15 14:04:20;;;;;;;22.50;14.38;;;;;;;;;;5097016;28;20071;-77
2022/01/15 14:06:45;;;;;;;23.00;16.58;;;;;;;;;;5097880;28;20082;-77
2022/01/15 14:09:15;;;;;;;21.75;14.65;;;;;;;;;;5097706;28;20454;-79
2022/01/15 14:11:40;;;;;;;;;;;;;;;;;;5096645;28;20019;-78
2022/01/15 14:14:06;;;;;;;28.47;19.13;;;;;;;;;;5096172;28;19910;-77
2022/01/15 14:16:32;;;;;;;19.67;14.50;;;;;;;;;;5096260;28;20521;-78
2022/01/15 14:19:24;;;;;;;24.58;17.08;;;;;;;;;;5095736;28;20020;-77
2022/01/15 14:21:52;;;;;;;24.58;16.00;;;;;;;;;;5097125;28;20023;-77
2022/01/15 14:24:24;;;;;;;21.33;13.35;;;;;;;;;;5097547;28;20139;-77
2022/01/15 14:26:54;;;;;;;25.90;16.27;;;;;;;;;;5097491;27;20028;-77
2022/01/15 14:29:19;;;;;;;34.55;23.00;;;;;;;;;;5096205;28;20024;-77
2022/01/15 14:31:44;;;;;;;36.03;22.55;;;;;;;;;;5095303;28;20114;-77
2022/01/15 14:34:10;;;;;;;29.15;18.13;;;;;;;;;;5097197;28;20032;-76
2022/01/15 14:36:36;;;;;;;25.80;15.52;;;;;;;;;;5096089;28;20019;-77
2022/01/15 14:39:04;;;;;;;26.92;14.18;;;;;;;;;;5095217;28;20027;-76
2022/01/15 14:41:30;;;;;;;23.70;16.00;;;;;;;;;;5096792;28;20294;-77
2022/01/15 14:43:56;;;;;;;20.73;13.85;;;;;;;;;;5096968;28;20122;-76
2022/01/15 14:46:21;;;;;;;26.63;16.75;;;;;;;;;;5097149;28;20423;-77
2022/01/15 14:48:46;;;;;;;30.38;19.50;;;;;;;;;;5097236;28;20464;-76